Time;durP1;ratioP1;P1;durP2;ratioP2;P2;SDS_P1;SDS_P2;PMS_P1;PMS_P2;Temp;Humidity;BMP_temperature;BMP_pressure;BME280_temperature;BME280_humidity;BME280_pressure;Samples;Min_cycle;Max_cycle;Signal;HPM_P1;HPM_P2
2022/07/29 00:01:00;;;;;;;;;;;12.50;64.60;;;;;;5092671;28;19924;-64
2022/07/29 00:03:27;;;;;;;;;;;12.40;64.30;;;;;;5093168;28;19912;-64
2022/07/29 00:05:53;;;;;;;;;;;12.50;64.20;;;;;;5093608;28;19908;-63
2022/07/29 00:08:20;;;;;;;;;;;12.50;64.40;;;;;;5092355;28;19977;-63
2022/07/29 00:10:47;;;;;;;;;;;12.50;64.80;;;;;;5093258;28;19908;-63
2022/07/29 00:13:13;;;;;;;;;;;12.60;64.10;;;;;;5093175;28;19915;-63
2022/07/29 00:15:40;;;;;;;;;;;12.60;64.10;;;;;;5093014;28;20351;-63
2022/07/29 00:18:06;;;;;;;;;;;12.70;63.30;;;;;;5092819;28;20247;-63
2022/07/29 00:20:33;;;;;;;;;;;12.70;63.10;;;;;;5092711;28;20346;-63
2022/07/29 00:22:59;;;;;;;;;;;12.70;63.00;;;;;;5092490;28;20350;-63
2022/07/29 00:25:26;;;;;;;;;;;12.70;61.80;;;;;;5092573;28;19969;-63
2022/07/29 00:27:53;;;;;;;;;;;12.70;60.90;;;;;;5093283;28;19954;-63
2022/07/29 00:30:19;;;;;;;;;;;12.80;60.50;;;;;;5092741;28;19913;-63
2022/07/29 00:32:46;;;;;;;;;;;12.80;62.00;;;;;;5092556;28;19908;-63
2022/07/29 00:37:57;;;;;;;;;;;13.00;60.60;;;;;;5092384;28;20328;-63
2022/07/29 00:40:24;;;;;;;;;;;12.90;60.80;;;;;;5092339;28;19908;-63
2022/07/29 00:42:52;;;;;;;;;;;12.90;59.70;;;;;;5092315;28;19908;-63
2022/07/29 00:45:19;;;;;;;;;;;12.90;59.80;;;;;;5090944;28;20381;-63
2022/07/29 00:47:45;;;;;;;;;;;12.90;58.30;;;;;;5092352;28;20407;-63
2022/07/29 00:50:12;;;;;;;;;;;13.00;60.00;;;;;;5092331;28;19908;-64
2022/07/29 00:52:39;;;;;;;;;;;13.00;60.30;;;;;;5092382;28;20010;-63
2022/07/29 00:55:06;;;;;;;;;;;13.00;60.00;;;;;;5092641;28;19912;-63
2022/07/29 00:57:33;;;;;;;;;;;13.00;59.10;;;;;;5092300;28;19919;-63
2022/07/29 00:59:59;;;;;;;;;;;13.00;58.90;;;;;;5092452;28;20008;-63
2022/07/29 01:02:26;;;;;;;;;;;13.10;59.40;;;;;;5091898;28;19920;-63
2022/07/29 01:04:53;;;;;;;;;;;13.10;59.40;;;;;;5092339;28;19908;-63
2022/07/29 01:07:19;;;;;;;;;;;13.10;59.70;;;;;;5090804;28;19961;-63
2022/07/29 01:09:46;;;;;;;;;;;13.10;59.60;;;;;;5090896;28;19908;-63
2022/07/29 01:12:23;;;;;;;;;;;13.10;59.30;;;;;;5091395;28;19908;-63
2022/07/29 01:14:50;;;;;;;;;;;13.20;59.50;;;;;;5090452;28;19916;-64
2022/07/29 01:17:16;;;;;;;;;;;13.20;60.30;;;;;;5091784;28;19915;-63
2022/07/29 01:20:01;;;;;;;;;;;13.20;59.70;;;;;;5094314;28;19908;-63
2022/07/29 01:22:34;;;;;;;;;;;13.20;59.50;;;;;;5095719;28;19927;-63
2022/07/29 01:25:06;;;;;;;;;;;13.20;57.10;;;;;;5096263;28;20319;-63
2022/07/29 01:27:42;;;;;;;;;;;13.30;57.80;;;;;;5096374;28;19908;-63
2022/07/29 01:30:08;;;;;;;;;;;13.30;58.60;;;;;;5096032;28;20328;-63
2022/07/29 01:32:36;;;;;;;;;;;13.30;58.50;;;;;;5095562;28;19915;-63
2022/07/29 01:35:02;;;;;;;;;;;13.30;58.10;;;;;;5094309;28;19935;-63
2022/07/29 01:37:31;;;;;;;;;;;13.30;57.40;;;;;;5095795;28;19953;-63
2022/07/29 01:39:58;;;;;;;;;;;13.30;57.10;;;;;;5096064;28;19977;-63
2022/07/29 01:42:28;;;;;;;;;;;13.40;57.40;;;;;;5094421;28;20070;-63
2022/07/29 01:44:56;;;;;;;;;;;13.40;55.30;;;;;;5094878;28;20393;-63
2022/07/29 01:47:23;;;;;;;;;;;13.40;56.40;;;;;;5094520;28;19915;-63
2022/07/29 01:49:51;;;;;;;;;;;13.40;55.70;;;;;;5095586;28;19965;-63
2022/07/29 01:52:24;;;;;;;;;;;13.50;55.40;;;;;;5094506;28;19908;-63
2022/07/29 01:54:55;;;;;;;;;;;13.50;54.90;;;;;;5094281;28;19908;-63
2022/07/29 01:57:24;;;;;;;;;;;13.50;55.00;;;;;;5094682;28;19957;-62
2022/07/29 01:59:51;;;;;;;;;;;13.60;53.20;;;;;;5094419;28;19991;-63
2022/07/29 02:02:17;;;;;;;;;;;13.60;53.10;;;;;;5093748;28;20132;-62
2022/07/29 02:04:45;;;;;;;;;;;13.60;53.60;;;;;;5093856;28;20281;-63
2022/07/29 02:07:13;;;;;;;;;;;13.60;50.40;;;;;;5093952;28;19912;-63
2022/07/29 02:09:39;;;;;;;;;;;13.70;48.60;;;;;;5094155;28;19960;-64
2022/07/29 02:12:06;;;;;;;;;;;13.80;47.10;;;;;;5094088;28;19958;-63
2022/07/29 02:14:37;;;;;;;;;;;13.80;47.70;;;;;;5094893;28;19912;-63
2022/07/29 02:17:03;;;;;;;;;;;13.80;46.30;;;;;;5094911;28;19919;-63
2022/07/29 02:19:31;;;;;;;;;;;13.80;45.60;;;;;;5094328;28;19915;-63
2022/07/29 02:21:57;;;;;;;;;;;13.80;46.50;;;;;;5095029;28;20271;-63
2022/07/29 02:24:24;;;;;;;;;;;13.80;46.10;;;;;;5095176;28;20370;-63
2022/07/29 02:26:50;;;;;;;;;;;13.90;47.20;;;;;;5094823;28;20376;-63
2022/07/29 02:29:17;;;;;;;;;;;13.90;46.40;;;;;;5094997;28;19908;-63
2022/07/29 02:31:43;;;;;;;;;;;13.90;44.90;;;;;;5094398;28;19966;-63
2022/07/29 02:34:10;;;;;;;;;;;13.90;46.00;;;;;;5094615;28;19981;-63
2022/07/29 02:36:36;;;;;;;;;;;14.00;45.20;;;;;;5094951;28;19908;-63
2022/07/29 02:39:03;;;;;;;;;;;14.00;46.30;;;;;;5093216;28;19908;-63
2022/07/29 02:41:41;;;;;;;;;;;14.00;46.80;;;;;;5094326;28;19923;-63
2022/07/29 02:44:11;;;;;;;;;;;14.00;47.30;;;;;;5094825;28;20404;-63
2022/07/29 02:46:41;;;;;;;;;;;14.00;44.80;;;;;;5094609;28;19916;-63
2022/07/29 02:49:13;;;;;;;;;;;14.00;45.20;;;;;;5093405;28;20302;-63
2022/07/29 02:51:46;;;;;;;;;;;14.00;44.90;;;;;;5093558;28;19915;-63
2022/07/29 02:54:27;;;;;;;;;;;14.00;43.80;;;;;;5094721;28;20333;-62
2022/07/29 02:56:55;;;;;;;;;;;14.00;42.70;;;;;;5093321;28;19963;-63
2022/07/29 02:59:22;;;;;;;;;;;14.10;42.80;;;;;;5093215;28;20019;-63
2022/07/29 03:01:49;;;;;;;;;;;14.10;42.10;;;;;;5092692;28;19920;-63
2022/07/29 03:04:15;;;;;;;;;;;14.10;39.90;;;;;;5093302;28;20381;-63
2022/07/29 03:06:42;;;;;;;;;;;14.10;41.20;;;;;;5094421;28;20423;-63
2022/07/29 03:09:09;;;;;;;;;;;14.10;40.40;;;;;;5093112;28;20294;-64
2022/07/29 03:11:35;;;;;;;;;;;14.10;41.00;;;;;;5092639;28;19919;-64
2022/07/29 03:14:02;;;;;;;;;;;14.10;42.10;;;;;;5094124;28;19919;-64
2022/07/29 03:16:28;;;;;;;;;;;14.10;44.50;;;;;;5092823;28;20356;-63
2022/07/29 03:18:55;;;;;;;;;;;14.10;44.10;;;;;;5093965;28;20324;-63
2022/07/29 03:21:22;;;;;;;;;;;14.20;43.80;;;;;;5092144;28;20019;-64
2022/07/29 03:23:48;;;;;;;;;;;14.20;41.70;;;;;;5093757;28;20259;-64
2022/07/29 03:26:15;;;;;;;;;;;14.20;43.70;;;;;;5093752;28;19908;-64
2022/07/29 03:28:41;;;;;;;;;;;14.20;43.20;;;;;;5092974;28;20274;-63
2022/07/29 03:31:08;;;;;;;;;;;14.20;42.60;;;;;;5092675;28;19908;-63
2022/07/29 03:33:34;;;;;;;;;;;14.20;43.20;;;;;;5093860;28;19912;-64
2022/07/29 03:36:02;;;;;;;;;;;14.20;44.90;;;;;;5093926;28;19912;-63
2022/07/29 03:38:29;;;;;;;;;;;14.20;42.90;;;;;;5093885;28;19912;-64
2022/07/29 03:41:01;;;;;;;;;;;14.20;43.50;;;;;;5093712;28;19916;-64
2022/07/29 03:43:28;;;;;;;;;;;14.10;43.10;;;;;;5092699;28;20014;-63
2022/07/29 03:45:55;;;;;;;;;;;14.10;42.10;;;;;;5092195;28;20425;-63
2022/07/29 03:48:22;;;;;;;;;;;14.10;43.80;;;;;;5092130;28;20274;-63
2022/07/29 03:50:48;;;;;;;;;;;14.10;44.20;;;;;;5092159;28;19960;-63
2022/07/29 03:53:15;;;;;;;;;;;14.10;43.60;;;;;;5092473;28;19908;-63
2022/07/29 03:55:42;;;;;;;;;;;14.10;43.40;;;;;;5092097;28;20319;-63
2022/07/29 03:58:10;;;;;;;;;;;14.10;43.50;;;;;;5092860;28;20274;-63
2022/07/29 04:00:37;;;;;;;;;;;14.00;43.10;;;;;;5091721;28;20046;-64
2022/07/29 04:03:04;;;;;;;;;;;14.00;44.20;;;;;;5093101;28;20045;-63
2022/07/29 04:05:30;;;;;;;;;;;14.00;45.40;;;;;;5093306;28;19910;-63
2022/07/29 04:07:57;;;;;;;;;;;13.90;44.70;;;;;;5092861;28;19911;-63
2022/07/29 04:10:23;;;;;;;;;;;13.90;45.30;;;;;;5093222;28;19915;-64
2022/07/29 04:12:50;;;;;;;;;;;13.90;44.60;;;;;;5091629;28;20285;-63
2022/07/29 04:15:17;;;;;;;;;;;13.90;43.80;;;;;;5092714;28;19908;-63
2022/07/29 04:17:43;;;;;;;;;;;14.00;45.20;;;;;;5092792;28;19909;-64
2022/07/29 04:20:12;;;;;;;;;;;14.00;46.70;;;;;;5092706;28;19908;-64
2022/07/29 04:22:42;;;;;;;;;;;14.00;48.10;;;;;;5092867;28;19963;-63
2022/07/29 04:25:09;;;;;;;;;;;14.00;47.20;;;;;;5091473;28;19992;-63
2022/07/29 04:27:35;;;;;;;;;;;14.00;47.70;;;;;;5093097;28;19915;-63
2022/07/29 04:30:02;;;;;;;;;;;14.00;47.10;;;;;;5092755;28;19916;-64
2022/07/29 04:32:28;;;;;;;;;;;14.10;47.70;;;;;;5092394;28;20267;-63
2022/07/29 04:34:55;;;;;;;;;;;14.10;47.10;;;;;;5092773;28;19934;-63
2022/07/29 04:37:21;;;;;;;;;;;14.10;48.90;;;;;;5092907;28;19916;-63
2022/07/29 04:39:48;;;;;;;;;;;14.00;48.60;;;;;;5092511;28;19915;-63
2022/07/29 04:42:15;;;;;;;;;;;14.10;48.00;;;;;;5092304;28;19916;-64
2022/07/29 04:44:41;;;;;;;;;;;14.10;46.40;;;;;;5092396;28;19908;-63
2022/07/29 04:47:08;;;;;;;;;;;14.20;47.30;;;;;;5087959;28;19934;-64
2022/07/29 04:49:37;;;;;;;;;;;14.20;47.40;;;;;;5095065;28;19912;-64
2022/07/29 04:52:04;;;;;;;;;;;14.20;46.50;;;;;;5091310;28;19915;-64
2022/07/29 04:54:30;;;;;;;;;;;14.20;46.90;;;;;;5091515;28;19957;-64
2022/07/29 04:56:57;;;;;;;;;;;14.20;48.50;;;;;;5092095;28;19908;-63
2022/07/29 04:59:24;;;;;;;;;;;14.20;48.10;;;;;;5086337;28;19912;-64
2022/07/29 05:01:51;;;;;;;;;;;14.20;48.30;;;;;;5089913;28;19920;-63
2022/07/29 05:04:17;;;;;;;;;;;14.20;48.40;;;;;;5087384;28;19977;-63
2022/07/29 05:06:44;;;;;;;;;;;14.10;48.70;;;;;;5091068;28;20255;-63
2022/07/29 05:09:10;;;;;;;;;;;14.10;48.80;;;;;;5089934;28;19912;-63
2022/07/29 05:11:37;;;;;;;;;;;14.10;50.10;;;;;;5087899;28;19918;-63
2022/07/29 05:14:04;;;;;;;;;;;14.10;49.30;;;;;;5092063;28;19924;-63
2022/07/29 05:16:30;;;;;;;;;;;14.00;50.60;;;;;;5091367;28;19996;-64
2022/07/29 05:18:57;;;;;;;;;;;14.00;50.00;;;;;;5087944;28;19916;-64
2022/07/29 05:21:23;;;;;;;;;;;14.00;49.30;;;;;;5086748;28;20418;-63
2022/07/29 05:23:50;;;;;;;;;;;14.10;47.40;;;;;;5089268;28;19934;-63
2022/07/29 05:26:16;;;;;;;;;;;14.10;47.00;;;;;;5089483;28;20433;-63
2022/07/29 05:28:43;;;;;;;;;;;14.10;47.30;;;;;;5076674;28;19916;-63
2022/07/29 05:31:09;;;;;;;;;;;14.00;44.90;;;;;;5089196;28;19955;-64
2022/07/29 05:33:36;;;;;;;;;;;14.00;45.30;;;;;;5088813;28;20263;-63
2022/07/29 05:36:06;;;;;;;;;;;14.00;44.60;;;;;;5084573;28;20356;-63
2022/07/29 05:38:33;;;;;;;;;;;14.00;46.10;;;;;;5084433;28;19926;-63
2022/07/29 05:40:59;;;;;;;;;;;13.90;47.60;;;;;;5088686;28;19924;-64
2022/07/29 05:43:29;;;;;;;;;;;13.90;46.90;;;;;;5085630;28;20293;-63
2022/07/29 05:45:56;;;;;;;;;;;13.80;47.70;;;;;;5084671;28;20377;-64
2022/07/29 05:48:23;;;;;;;;;;;13.80;47.70;;;;;;5086326;28;19916;-61
2022/07/29 05:50:49;;;;;;;;;;;13.80;47.40;;;;;;5086601;28;19913;-61
2022/07/29 05:53:16;;;;;;;;;;;13.80;48.60;;;;;;5088276;28;19916;-66
2022/07/29 05:55:42;;;;;;;;;;;13.70;48.90;;;;;;5088857;28;19923;-63
2022/07/29 05:58:09;;;;;;;;;;;13.80;45.80;;;;;;5086398;28;20393;-63
2022/07/29 06:00:35;;;;;;;;;;;13.80;48.80;;;;;;5087247;28;19916;-62
2022/07/29 06:03:02;;;;;;;;;;;13.70;48.30;;;;;;5075085;28;19977;-62
2022/07/29 06:05:29;;;;;;;;;;;13.80;47.20;;;;;;5078784;28;19955;-64
2022/07/29 06:07:55;;;;;;;;;;;13.70;48.10;;;;;;5090745;28;19916;-62
2022/07/29 06:10:22;;;;;;;;;;;13.70;47.30;;;;;;5081144;28;19920;-62
2022/07/29 06:12:48;;;;;;;;;;;13.70;49.10;;;;;;5092156;28;20367;-62
2022/07/29 06:15:15;;;;;;;;;;;13.70;49.10;;;;;;5092175;28;19908;-66
2022/07/29 06:17:41;;;;;;;;;;;13.70;49.60;;;;;;5089966;28;20382;-66
2022/07/29 06:20:08;;;;;;;;;;;13.70;49.90;;;;;;5092537;28;19987;-64
2022/07/29 06:22:35;;;;;;;;;;;13.60;50.50;;;;;;5090671;28;19954;-63
2022/07/29 06:25:02;;;;;;;;;;;13.60;50.90;;;;;;5083965;28;20235;-61
2022/07/29 06:27:29;;;;;;;;;;;13.60;51.20;;;;;;5089176;28;19952;-61
2022/07/29 06:29:56;;;;;;;;;;;13.50;52.20;;;;;;5083096;28;19916;-61
2022/07/29 06:32:23;;;;;;;;;;;13.60;50.40;;;;;;5090136;28;19912;-61
2022/07/29 06:34:49;;;;;;;;;;;13.60;51.20;;;;;;5083305;28;19919;-61
2022/07/29 06:37:17;;;;;;;;;;;13.50;52.10;;;;;;5091985;28;19981;-62
2022/07/29 06:39:43;;;;;;;;;;;13.50;51.80;;;;;;5092170;28;20409;-62
2022/07/29 06:42:10;;;;;;;;;;;13.50;50.80;;;;;;5091565;28;20407;-65
2022/07/29 06:44:37;;;;;;;;;;;13.50;51.30;;;;;;5091999;28;20374;-64
2022/07/29 06:47:04;;;;;;;;;;;13.50;51.80;;;;;;5092659;28;19947;-63
2022/07/29 06:49:30;;;;;;;;;;;13.40;52.20;;;;;;5090790;28;19908;-65
2022/07/29 06:51:57;;;;;;;;;;;13.40;51.50;;;;;;5091529;28;19922;-65
2022/07/29 06:54:23;;;;;;;;;;;13.40;52.20;;;;;;5091529;28;19920;-66
2022/07/29 06:56:50;;;;;;;;;;;13.50;50.90;;;;;;5090702;28;19986;-65
2022/07/29 06:59:17;;;;;;;;;;;13.50;50.80;;;;;;5087594;28;20286;-65
2022/07/29 07:01:43;;;;;;;;;;;13.50;50.50;;;;;;5084541;28;19932;-67
2022/07/29 07:04:10;;;;;;;;;;;13.50;51.80;;;;;;5092205;28;19943;-67
2022/07/29 07:06:36;;;;;;;;;;;13.40;52.30;;;;;;5094465;28;19912;-66
2022/07/29 07:09:03;;;;;;;;;;;13.40;51.70;;;;;;5095688;28;19912;-66
2022/07/29 07:11:30;;;;;;;;;;;13.40;52.50;;;;;;5093553;28;20366;-67
2022/07/29 07:13:57;;;;;;;;;;;13.30;53.40;;;;;;5091148;28;19939;-66
2022/07/29 07:16:23;;;;;;;;;;;13.30;52.70;;;;;;5099467;28;19954;-66
2022/07/29 07:18:50;;;;;;;;;;;13.30;53.20;;;;;;5091513;28;19947;-66
2022/07/29 07:21:16;;;;;;;;;;;13.30;52.50;;;;;;5097217;28;19970;-65
2022/07/29 07:23:43;;;;;;;;;;;13.30;51.50;;;;;;5089215;28;20128;-66
2022/07/29 07:26:10;;;;;;;;;;;13.30;52.40;;;;;;5086525;28;19916;-65
2022/07/29 07:28:37;;;;;;;;;;;13.30;53.30;;;;;;5084279;28;19971;-65
2022/07/29 07:31:03;;;;;;;;;;;13.30;51.80;;;;;;5079183;28;19923;-65
2022/07/29 07:33:30;;;;;;;;;;;13.30;52.00;;;;;;5081359;28;20303;-67
2022/07/29 07:35:57;;;;;;;;;;;13.30;53.10;;;;;;5087241;28;19926;-66
2022/07/29 07:38:23;;;;;;;;;;;13.20;52.60;;;;;;5089686;28;20390;-68
2022/07/29 07:40:50;;;;;;;;;;;13.20;53.10;;;;;;5089487;28;19916;-67
2022/07/29 07:43:16;;;;;;;;;;;13.20;52.40;;;;;;5084809;28;19940;-67
2022/07/29 07:45:43;;;;;;;;;;;13.20;53.90;;;;;;5085760;28;20267;-66
2022/07/29 07:48:10;;;;;;;;;;;13.20;53.80;;;;;;5090793;28;20410;-66
2022/07/29 07:50:36;;;;;;;;;;;13.30;54.10;;;;;;5090403;28;20350;-66
2022/07/29 10:49:06;;;;;;;;;;;11.90;66.30;;;;;;5087121;28;20246;-64
2022/07/29 10:51:52;;;;;;;;;;;11.80;66.30;;;;;;5093659;28;19916;-65
2022/07/29 10:54:19;;;;;;;;;;;11.70;66.50;;;;;;5087007;28;20330;-65
2022/07/29 10:56:46;;;;;;;;;;;11.70;66.60;;;;;;5091410;28;19912;-65
2022/07/29 10:59:23;;;;;;;;;;;11.60;66.90;;;;;;5090140;28;19919;-65
2022/07/29 11:01:50;;;;;;;;;;;11.60;66.80;;;;;;5089623;28;19916;-64
2022/07/29 11:04:37;;;;;;;;;;;11.50;67.20;;;;;;5089594;28;19912;-66
2022/07/29 11:07:07;;;;;;;;;;;11.50;67.30;;;;;;5079527;28;19915;-66
2022/07/29 11:09:34;;;;;;;;;;;11.50;67.50;;;;;;5085905;28;19920;-65
2022/07/29 11:12:01;;;;;;;;;;;11.40;67.50;;;;;;5093877;28;20411;-65
2022/07/29 11:14:47;;;;;;;;;;;11.40;67.70;;;;;;5093558;28;19909;-65
2022/07/29 11:17:14;;;;;;;;;;;11.40;67.90;;;;;;5075645;28;19912;-65
2022/07/29 11:19:42;;;;;;;;;;;11.40;68.30;;;;;;5094235;28;19912;-65
2022/07/29 11:22:09;;;;;;;;;;;11.30;68.30;;;;;;5093895;28;20326;-66
2022/07/29 11:24:36;;;;;;;;;;;11.30;68.70;;;;;;5093903;28;19916;-65
2022/07/29 11:27:39;;;;;;;;;;;11.30;68.60;;;;;;5093995;28;19991;-65
2022/07/29 11:30:06;;;;;;;;;;;11.20;68.50;;;;;;5082457;28;19912;-66
2022/07/29 11:32:36;;;;;;;;;;;11.20;68.80;;;;;;5092604;28;19946;-65
2022/07/29 11:35:12;;;;;;;;;;;11.20;68.50;;;;;;5093843;28;20330;-67
2022/07/29 11:37:38;;;;;;;;;;;11.20;68.10;;;;;;5092154;28;19923;-64
2022/07/29 11:40:06;;;;;;;;;;;11.20;68.30;;;;;;5091090;28;20277;-66
2022/07/29 11:42:36;;;;;;;;;;;11.20;68.20;;;;;;5097453;28;19916;-65
2022/07/29 11:45:05;;;;;;;;;;;11.20;68.40;;;;;;5090038;28;19926;-65
2022/07/29 11:47:32;;;;;;;;;;;11.20;68.30;;;;;;5099209;28;20011;-66
2022/07/29 11:50:00;;;;;;;;;;;11.20;68.70;;;;;;5096507;28;19916;-65
2022/07/29 11:52:33;;;;;;;;;;;11.10;68.40;;;;;;5100585;28;19912;-65
2022/07/29 11:55:01;;;;;;;;;;;11.10;68.30;;;;;;5098473;28;19919;-65
2022/07/29 11:57:28;;;;;;;;;;;11.10;69.30;;;;;;5090633;28;19912;-66
2022/07/29 11:59:54;;;;;;;;;;;11.10;68.90;;;;;;5096260;28;19912;-66
2022/07/29 12:02:21;;;;;;;;;;;11.00;69.60;;;;;;5087064;28;20359;-66
2022/07/29 12:04:54;;;;;;;;;;;11.00;70.00;;;;;;5083467;28;20421;-65
2022/07/29 12:07:30;;;;;;;;;;;11.00;69.70;;;;;;5087873;28;20003;-66
2022/07/29 12:09:57;;;;;;;;;;;11.00;69.80;;;;;;5102078;28;19912;-65
2022/07/29 12:12:23;;;;;;;;;;;11.00;69.40;;;;;;5099888;28;19912;-66
2022/07/29 12:14:51;;;;;;;;;;;11.00;69.00;;;;;;5099837;28;19916;-66
